Burewala Weather



Burewala's Current Weather

Temprature 29.31o clear sky

clear sky

Rain: 0 %

Min Temprature29.31o
Max Temprature29.31o
Humidity59
Wind Speed2.13 m/h
Sun Rise05:59:39
Sun Set18:02:02
Current Time: 26-Sep-2022 08:57:14
Lat/Lon: 30.1667, 72.65




Burewala's Geo Location



Burewala's Weather Forecast

Time Overall Temp Min Temp Max Temp Humidity Wind Speed Rain
26-Sep-2022 (Mon)
11:00:00 clear sky 29.030 29.030 33.720 60 0.84 m/h 0 %
14:00:00 clear sky 33.410 33.410 36.770 43 0.61 m/h 0 %
17:00:00 clear sky 35.640 35.640 35.640 33 0.28 m/h 0 %
20:00:00 clear sky 29.230 29.230 29.230 48 2.35 m/h 0 %
23:00:00 clear sky 27.530 27.530 27.530 54 0.62 m/h 0 %
27-Sep-2022 (Tue)
02:00:00 clear sky 26.650 26.650 26.650 58 2 m/h 0 %
05:00:00 clear sky 25.740 25.740 25.740 63 1.8 m/h 0 %
08:00:00 clear sky 29.820 29.820 29.820 48 1.95 m/h 0 %
11:00:00 clear sky 35.990 35.990 35.990 25 3.9 m/h 0 %
14:00:00 clear sky 38.330 38.330 38.330 20 4.97 m/h 0 %
17:00:00 clear sky 36.280 36.280 36.280 24 4.61 m/h 0 %
20:00:00 clear sky 30.650 30.650 30.650 32 3.58 m/h 0 %
23:00:00 clear sky 28.650 28.650 28.650 36 3.49 m/h 0 %
28-Sep-2022 (Wed)
02:00:00 clear sky 26.780 26.780 26.780 41 1.72 m/h 0 %
05:00:00 clear sky 25.370 25.370 25.370 43 0.78 m/h 0 %
08:00:00 clear sky 29.090 29.090 29.090 35 3.07 m/h 0 %
11:00:00 clear sky 36.380 36.380 36.380 25 5.13 m/h 0 %
14:00:00 clear sky 38.180 38.180 38.180 21 4.92 m/h 0 %
17:00:00 clear sky 35.990 35.990 35.990 24 3.68 m/h 0 %
20:00:00 clear sky 30.440 30.440 30.440 32 3.67 m/h 0 %
23:00:00 clear sky 28.490 28.490 28.490 35 3.72 m/h 0 %
29-Sep-2022 (Thu)
02:00:00 clear sky 26.580 26.580 26.580 30 3.74 m/h 0 %
05:00:00 clear sky 24.620 24.620 24.620 33 1.03 m/h 0 %
08:00:00 clear sky 28.500 28.500 28.500 36 2.86 m/h 0 %
11:00:00 clear sky 36.360 36.360 36.360 24 5.01 m/h 0 %
14:00:00 clear sky 37.980 37.980 37.980 20 4.97 m/h 0 %
17:00:00 clear sky 35.720 35.720 35.720 24 3.62 m/h 0 %
20:00:00 clear sky 29.960 29.960 29.960 31 3.37 m/h 0 %
23:00:00 clear sky 27.830 27.830 27.830 33 3.46 m/h 0 %
30-Sep-2022 (Fri)
02:00:00 clear sky 25.930 25.930 25.930 34 3.48 m/h 0 %
05:00:00 clear sky 24.880 24.880 24.880 34 3.58 m/h 0 %
08:00:00 clear sky 29.030 29.030 29.030 35 3.87 m/h 0 %
11:00:00 clear sky 36.330 36.330 36.330 24 5.32 m/h 0 %
14:00:00 clear sky 38.330 38.330 38.330 18 5.06 m/h 0 %
17:00:00 clear sky 36.050 36.050 36.050 22 3.75 m/h 0 %
20:00:00 clear sky 30.060 30.060 30.060 30 3.64 m/h 0 %
23:00:00 clear sky 28.250 28.250 28.250 34 3.71 m/h 0 %
01-Oct-2022 (Sat)
02:00:00 clear sky 26.500 26.500 26.500 41 3.58 m/h 0 %
05:00:00 clear sky 25.450 25.450 25.450 41 3.56 m/h 0 %
08:00:00 clear sky 29.490 29.490 29.490 36 4.89 m/h 0 %


Burewala's Tourist Spots

Historical Places in Burewala

Famous Cities (61)